Pagrindinis puslapis
METAR-TAF:

METAR-TAF

Oro uostai :

Novosibirskas, Rusija

platuma: 55-01N, ilguma: 082-38E, Aukštis: 111 m

Dabartinis oras

Ataskaita buvo paskelbta 33 minutes, ne 03:00 UTC
Vėjas 6 kt iš Vakarų/Šiaurės Vakarų
Temperatūra -32°C
Drėgmė 74%
Slėgis 1034 hPa
Matomumas 10 km arba daugiau
Išsisklaidę debesys ne aukštis 2600 ft

METAR: UNNT 240300Z 29003MPS 9999 SCT026 M32/M35 Q1034 R25/810160 R34/410350 NOSIG RMK QFE765/1021

Laikas: 10:33 (03:33 UTC)

Prognozė

Ataskaita buvo paskelbta 1 valandą ir 33 minutes, ne 02:00 UTC
Prognozė galioja nuo 24 metu 03 UTC su 25 metu 03 UTC
Vėjas 6 kt iš Vakarų su gūsio iki 16 kt
Matomumas: 8000 m
Su prošvaistėmis ne aukštis 4000 ft
sniegas
Laikinai
nuo 24 metu 03 UTC su 24 metu 06 UTC
Su prošvaistėmis ne aukštis 1000 ft

TAF: UNNT 240200Z 2403/2503 26003G08MPS 8000 -SN BKN040 TEMPO 2403/2406 BKN010

Orai ataskaitas ir orų prognozės (METAR, TAF).

turimą stotys yra geltonos ir raudonos taškus žemėlapyje.

Perkelti pele per norėdami pamatyti stoties vardą.

Tada spustelėkite, norėdami matyti oro stebėjimo ir prognozės.

Norėdami pakeisti žemėlapį: spustelėkite ant žalios mygtukų su juodo kryžiaus žemyn,; žalią mygtuką su brūkšneliu, jei norite nutolinti; arba žalių rodyklių gretimoms žemėlapius.


METAR-TAF: